Terminal Aerodrome Forecast
Issued by NWS

Home | Current Version | Previous Version | Text Only | Print | Product List | Glossary On
Versions: 1 2 3 4 5 6 7 8 9 10 11 12 13 14 15 16 17 18 19 20 21 22 23 24 25 26 27 28 29 30 31 32 33 34 35 36 37 38
000
FTUS43 KGRB 281125
TAFRHI
TAF
KRHI 281125Z 2812/2912 VRB03KT 6SM BR SKC
      TEMPO 2812/2813 2SM BR SCT002
     FM281400 19008KT P6SM SCT070
     FM281900 19012G20KT P6SM VCSH BKN060
     FM290100 18006KT P6SM SCT200
     FM290700 17005KT P6SM SCT040 BKN070=

USA.gov is the U.S. government's official web portal to all federal, state and local government web resources and services.